Time;durP1;ratioP1;P1;durP2;ratioP2;P2;SDS_P1;SDS_P2;PMS_P1;PMS_P2;Temp;Humidity;BMP_temperature;BMP_pressure;BME280_temperature;BME280_humidity;BME280_pressure;Samples;Min_cycle;Max_cycle;Signal;HPM_P1;HPM_P2
2022/07/12 00:01:58;;;;;;;16.60;5.32;;;;;;;23.12;55.46;99982.66;5042136;28;20152;-66
2022/07/12 00:04:25;;;;;;;13.65;5.80;;;;;;;23.18;55.50;99979.13;5040478;28;20145;-66
2022/07/12 00:06:52;;;;;;;11.63;5.43;;;;;;;23.17;55.65;99968.91;5032973;28;20064;-67
2022/07/12 00:09:19;;;;;;;12.13;6.05;;;;;;;23.10;56.69;99951.69;5034215;28;20056;-67
2022/07/12 00:11:46;;;;;;;11.40;6.88;;;;;;;23.36;57.69;99959.47;5040783;28;20132;-68
2022/07/12 00:14:14;;;;;;;10.07;4.97;;;;;;;23.67;56.09;99954.66;5037048;28;20143;-67
2022/07/12 00:16:41;;;;;;;9.35;5.55;;;;;;;23.81;55.59;99965.50;5046100;28;20482;-66
2022/07/12 00:19:08;;;;;;;8.98;4.85;;;;;;;23.95;54.82;99971.41;5043994;28;20404;-67
2022/07/12 00:21:35;;;;;;;13.80;5.38;;;;;;;23.93;54.14;99964.44;5047438;28;20068;-67
2022/07/12 00:24:02;;;;;;;10.98;5.95;;;;;;;23.96;54.34;99955.09;5040244;28;20077;-68
2022/07/12 00:26:29;;;;;;;10.70;6.07;;;;;;;24.04;54.10;99969.09;5047376;28;20136;-68
2022/07/12 00:28:57;;;;;;;15.75;5.32;;;;;;;23.97;53.63;99962.47;5047196;28;20073;-66
2022/07/12 00:31:24;;;;;;;12.73;5.20;;;;;;;24.03;53.81;99970.28;5040291;28;20131;-67
2022/07/12 00:33:51;;;;;;;17.98;6.57;;;;;;;23.74;53.84;99926.28;5047885;28;20474;-67
2022/07/12 00:36:19;;;;;;;12.23;5.78;;;;;;;24.00;53.70;99965.38;5039591;28;20238;-66
2022/07/12 00:38:47;;;;;;;14.70;6.55;;;;;;;23.68;54.30;99932.72;5050162;28;20099;-66
2022/07/12 00:41:14;;;;;;;15.63;5.70;;;;;;;23.73;54.15;99964.56;5044883;28;20076;-66
2022/07/12 00:43:41;;;;;;;10.90;4.72;;;;;;;23.47;54.70;99945.41;5039575;28;20148;-66
2022/07/12 00:46:09;;;;;;;10.23;5.65;;;;;;;23.45;54.79;99956.34;5048680;28;20143;-66
2022/07/12 00:48:37;;;;;;;14.98;5.95;;;;;;;23.36;54.89;99945.22;5041531;28;20048;-66
2022/07/12 00:51:03;;;;;;;11.65;5.28;;;;;;;23.19;55.24;99948.59;5039938;28;20072;-66
2022/07/12 00:53:30;;;;;;;12.35;6.22;;;;;;;23.21;55.52;99953.91;5039220;28;20084;-66
2022/07/12 00:55:58;;;;;;;10.02;5.60;;;;;;;23.22;55.51;99950.69;5037770;28;20136;-66
2022/07/12 00:58:26;;;;;;;14.07;5.88;;;;;;;23.23;55.32;99952.34;5041859;28;20184;-66
2022/07/12 01:00:56;;;;;;;14.63;5.37;;;;;;;23.22;55.69;99953.53;5040643;28;20057;-67
2022/07/12 01:03:23;;;;;;;12.30;4.82;;;;;;;22.92;55.59;99913.53;5047028;28;20322;-66
2022/07/12 01:05:50;;;;;;;11.23;5.47;;;;;;;23.08;56.08;99951.28;5043743;28;20140;-66
2022/07/12 01:08:17;;;;;;;11.20;5.10;;;;;;;22.97;56.20;99935.19;5044669;28;20136;-66
2022/07/12 01:10:45;;;;;;;15.65;6.20;;;;;;;22.97;55.98;99926.63;5045441;28;20172;-66
2022/07/12 01:13:11;;;;;;;12.45;6.43;;;;;;;23.12;56.33;99951.34;5038507;28;20276;-66
2022/07/12 01:15:40;;;;;;;19.27;6.68;;;;;;;23.10;56.38;99945.19;5046486;28;20133;-66
2022/07/12 01:18:07;;;;;;;12.85;5.88;;;;;;;23.03;56.39;99937.34;5044591;28;20053;-66
2022/07/12 01:20:34;;;;;;;12.70;6.70;;;;;;;23.13;56.72;99942.41;5049417;28;20057;-67
2022/07/12 01:23:02;;;;;;;9.38;5.75;;;;;;;23.26;55.88;99948.72;5039104;28;20124;-66
2022/07/12 01:25:29;;;;;;;11.32;5.53;;;;;;;23.32;56.08;99944.34;5038661;28;21360;-66
2022/07/12 01:27:57;;;;;;;11.23;5.35;;;;;;;23.26;56.45;99927.97;5038845;28;20142;-66
2022/07/12 01:30:24;;;;;;;11.13;5.65;;;;;;;23.01;55.82;99902.75;5043582;28;20049;-66
2022/07/12 01:32:51;;;;;;;13.05;5.90;;;;;;;23.28;56.68;99952.03;5047427;28;20048;-66
2022/07/12 01:35:21;;;;;;;13.90;6.40;;;;;;;23.26;56.63;99945.88;5043831;28;20136;-65
2022/07/12 01:37:49;;;;;;;10.38;5.57;;;;;;;23.25;56.58;99938.53;5044964;28;20132;-65
2022/07/12 01:40:16;;;;;;;14.23;6.07;;;;;;;23.13;56.71;99925.31;5040319;28;20111;-65
2022/07/12 01:42:44;;;;;;;15.55;6.55;;;;;;;23.20;56.75;99938.03;5041094;28;20087;-65
2022/07/12 01:45:12;;;;;;;10.18;5.70;;;;;;;23.15;56.47;99927.78;5039094;28;20053;-65
2022/07/12 01:47:39;;;;;;;11.50;5.85;;;;;;;23.01;56.96;99911.28;5046717;28;20088;-65
2022/07/12 01:50:10;;;;;;;11.88;6.35;;;;;;;23.13;57.18;99927.34;5046645;28;20085;-65
2022/07/12 01:52:40;;;;;;;11.15;5.93;;;;;;;23.15;57.04;99917.22;5038455;28;20049;-67
2022/07/12 01:55:08;;;;;;;9.90;6.45;;;;;;;23.31;56.55;99937.00;5036414;28;20136;-66
2022/07/12 01:57:37;;;;;;;10.77;5.10;;;;;;;23.31;56.22;99919.91;5042612;28;20080;-66
2022/07/12 02:00:05;;;;;;;15.95;6.78;;;;;;;23.45;56.12;99929.88;5041914;28;20041;-65
2022/07/12 02:02:32;;;;;;;10.02;5.45;;;;;;;23.42;56.53;99938.00;5046096;28;20136;-67
2022/07/12 02:05:00;;;;;;;10.40;5.53;;;;;;;23.19;56.19;99883.09;5049203;28;20067;-67
2022/07/12 02:07:27;;;;;;;8.00;5.65;;;;;;;23.64;55.63;99909.81;5046488;28;20471;-67
2022/07/12 02:09:55;;;;;;;12.43;5.40;;;;;;;24.12;54.49;99925.19;5048787;28;20080;-67
2022/07/12 02:12:21;;;;;;;8.48;5.47;;;;;;;24.35;54.34;99910.00;5030296;28;20499;-67
2022/07/12 02:14:50;;;;;;;9.18;4.93;;;;;;;24.66;53.77;99907.91;5038540;28;20571;-67
2022/07/12 02:17:17;;;;;;;9.02;5.82;;;;;;;24.97;53.18;99918.00;5042908;28;20140;-67
2022/07/12 02:19:44;;;;;;;9.27;5.55;;;;;;;25.24;52.52;99924.41;5064158;28;20495;-66
2022/07/12 02:22:11;;;;;;;11.82;4.55;;;;;;;25.31;52.25;99910.16;5036016;28;20129;-66
2022/07/12 02:24:38;;;;;;;10.07;5.55;;;;;;;25.33;52.06;99884.03;5050248;28;20044;-66
2022/07/12 02:27:06;;;;;;;9.23;5.57;;;;;;;25.70;51.54;99912.47;5035775;28;20097;-65
2022/07/12 02:29:33;;;;;;;10.13;5.68;;;;;;;25.72;51.06;99899.41;5042642;28;20041;-66
2022/07/12 02:32:00;;;;;;;10.57;5.28;;;;;;;25.76;51.32;99888.81;5040193;28;20512;-66
2022/07/12 02:34:27;;;;;;;8.63;4.90;;;;;;;25.86;50.87;99898.72;5048070;28;20088;-66
2022/07/12 02:36:54;;;;;;;10.15;5.50;;;;;;;25.92;50.73;99893.44;5048756;28;20477;-65
2022/07/12 02:39:21;;;;;;;8.00;5.68;;;;;;;25.79;50.50;99881.47;5043276;28;20073;-66
2022/07/12 02:41:48;;;;;;;11.30;4.78;;;;;;;26.16;50.45;99920.53;5048572;28;20786;-66
2022/07/12 02:44:15;;;;;;;13.95;6.38;;;;;;;26.01;50.41;99919.63;5042222;28;20136;-66
2022/07/12 02:46:42;;;;;;;13.63;5.95;;;;;;;25.72;50.91;99919.44;5042053;28;20684;-65
2022/07/12 02:49:09;;;;;;;14.90;6.10;;;;;;;25.25;51.50;99897.47;5050359;28;20045;-66
2022/07/12 02:51:36;;;;;;;12.77;5.80;;;;;;;25.03;51.67;99887.88;5044152;28;20132;-66
2022/07/12 02:54:03;;;;;;;12.65;6.55;;;;;;;25.08;52.16;99924.63;5044620;28;20052;-66
2022/07/12 02:56:30;;;;;;;12.27;7.07;;;;;;;24.93;52.65;99934.28;5035505;28;20057;-66
2022/07/12 02:58:56;;;;;;;11.18;6.72;;;;;;;24.82;52.80;99940.72;5048877;28;20140;-66
2022/07/12 03:01:23;;;;;;;18.00;6.65;;;;;;;24.60;52.66;99927.41;5040909;28;20046;-66
2022/07/12 03:03:51;;;;;;;10.93;5.85;;;;;;;24.44;53.35;99933.34;5043783;28;20059;-67
2022/07/12 03:06:18;;;;;;;9.95;5.90;;;;;;;24.50;53.20;99962.38;5045548;28;20135;-67
2022/07/12 03:08:45;;;;;;;18.58;6.85;;;;;;;24.25;53.36;99927.78;5041354;28;20211;-67
2022/07/12 03:11:12;;;;;;;13.07;6.45;;;;;;;24.19;53.93;99940.75;5040962;28;20081;-66
2022/07/12 03:13:39;;;;;;;8.07;5.72;;;;;;;24.27;53.51;99966.16;5038390;28;20447;-66
2022/07/12 03:16:07;;;;;;;12.50;5.95;;;;;;;24.28;53.89;99962.06;5046016;28;20587;-65
2022/07/12 03:18:34;;;;;;;13.32;5.53;;;;;;;24.26;54.24;99960.81;5046477;28;20056;-66
2022/07/12 03:21:01;;;;;;;10.93;5.93;;;;;;;24.20;54.10;99960.31;5044614;28;20103;-66
2022/07/12 03:23:28;;;;;;;12.95;5.82;;;;;;;24.34;53.96;99960.53;5048310;28;20069;-67
2022/07/12 03:25:55;;;;;;;11.90;5.97;;;;;;;24.39;53.79;99953.66;5047374;28;20049;-68
2022/07/12 03:28:25;;;;;;;12.55;5.95;;;;;;;24.22;53.91;99909.41;5045253;28;20163;-68
2022/07/12 03:30:51;;;;;;;13.52;7.05;;;;;;;24.55;53.79;99960.00;5046694;28;20076;-66
2022/07/12 03:33:18;;;;;;;11.23;6.13;;;;;;;24.47;53.81;99946.84;5048355;28;20068;-67
2022/07/12 03:35:45;;;;;;;16.92;6.32;;;;;;;24.51;53.93;99944.03;5048956;28;20049;-67
2022/07/12 03:38:12;;;;;;;12.75;6.45;;;;;;;24.73;53.29;99968.75;5047898;28;20076;-65
2022/07/12 03:40:39;;;;;;;11.73;6.32;;;;;;;24.78;53.69;99973.28;5047618;28;20140;-65
2022/07/12 03:43:06;;;;;;;10.43;5.78;;;;;;;24.51;53.52;99924.03;5040107;28;20483;-66
2022/07/12 03:45:33;;;;;;;7.68;5.20;;;;;;;24.81;53.28;99966.78;5037357;28;20073;-66
2022/07/12 03:48:00;;;;;;;11.15;5.72;;;;;;;24.55;53.27;99925.75;5045993;28;20539;-66
2022/07/12 03:50:27;;;;;;;8.57;5.93;;;;;;;24.82;53.03;99975.00;5038238;28;20128;-66
2022/07/12 03:52:54;;;;;;;13.20;5.90;;;;;;;24.76;53.22;99959.41;5044666;28;20140;-66
2022/07/12 03:55:22;;;;;;;14.32;6.88;;;;;;;24.83;53.14;99976.63;5040239;28;20058;-66
2022/07/12 03:57:49;;;;;;;11.48;6.00;;;;;;;24.83;53.27;99973.75;5045970;28;20080;-66
2022/07/12 04:00:15;;;;;;;10.88;5.78;;;;;;;24.90;53.17;99977.91;5046036;28;20084;-65
2022/07/12 04:02:43;;;;;;;9.52;5.47;;;;;;;24.85;52.95;99972.53;5042535;28;20049;-66
2022/07/12 04:05:11;;;;;;;8.90;5.97;;;;;;;24.77;53.13;99954.53;5047713;28;20041;-66
2022/07/12 04:07:39;;;;;;;11.38;6.07;;;;;;;24.80;52.94;99965.16;5043231;28;20096;-66
2022/07/12 04:10:07;;;;;;;8.80;5.45;;;;;;;24.87;53.32;99961.56;5041848;28;20127;-65
2022/07/12 04:12:34;;;;;;;13.23;5.47;;;;;;;24.92;52.75;99969.75;5040282;28;20125;-66
2022/07/12 04:15:02;;;;;;;10.13;5.97;;;;;;;24.98;52.54;99971.88;5041939;28;20081;-66
2022/07/12 04:17:29;;;;;;;9.70;5.75;;;;;;;25.07;52.86;99980.13;5048993;28;20132;-66
2022/07/12 04:19:56;;;;;;;10.75;6.03;;;;;;;25.05;52.85;99965.41;5040056;28;20472;-66
2022/07/12 04:22:23;;;;;;;9.32;5.63;;;;;;;25.08;52.54;99981.75;5051894;28;20140;-67
2022/07/12 04:24:49;;;;;;;10.85;5.43;;;;;;;25.12;52.95;99985.50;5046992;28;20454;-66
2022/07/12 04:27:17;;;;;;;9.48;5.65;;;;;;;25.09;52.73;99985.44;5039835;28;20136;-67
2022/07/12 04:29:45;;;;;;;6.65;5.07;;;;;;;24.93;52.82;99966.53;5043035;28;20075;-67
2022/07/12 04:32:12;;;;;;;6.57;4.30;;;;;;;25.14;51.92;99977.38;5045779;28;20076;-67
2022/07/12 04:34:39;;;;;;;5.45;4.18;;;;;;;25.32;50.70;99968.13;5040644;28;20131;-67
2022/07/12 04:37:06;;;;;;;9.77;5.90;;;;;;;25.61;51.28;99992.91;5052985;28;20053;-67
2022/07/12 04:39:33;;;;;;;6.70;4.57;;;;;;;25.43;51.34;99969.03;5038884;28;20568;-67
2022/07/12 04:41:59;;;;;;;9.45;5.85;;;;;;;25.42;51.69;99984.56;5041995;28;20124;-67
2022/07/12 04:44:26;;;;;;;9.90;6.28;;;;;;;25.32;51.94;99993.88;5033981;28;20099;-67
2022/07/12 04:46:53;;;;;;;12.68;7.38;;;;;;;25.17;52.48;99990.88;5035358;28;20088;-67
2022/07/12 04:49:20;;;;;;;10.60;6.60;;;;;;;25.08;52.66;99989.53;5049520;28;20132;-67
2022/07/12 04:51:47;;;;;;;12.50;7.82;;;;;;;24.88;52.75;99991.75;5040512;28;20049;-67
2022/07/12 04:54:14;;;;;;;13.75;6.70;;;;;;;24.71;52.91;99981.78;5038040;28;20140;-68
2022/07/12 04:56:41;;;;;;;18.77;7.63;;;;;;;24.70;53.28;99998.09;5042348;28;20156;-67
2022/07/12 04:59:08;;;;;;;14.05;7.28;;;;;;;24.64;53.76;100002.50;5042439;28;20095;-67
2022/07/12 05:01:35;;;;;;;15.90;7.68;;;;;;;24.50;53.75;99993.75;5036508;28;20087;-67
2022/07/12 05:04:02;;;;;;;13.50;7.93;;;;;;;24.47;53.72;100003.91;5033350;28;20500;-67
2022/07/12 05:06:28;;;;;;;21.48;8.68;;;;;;;24.36;53.97;99998.03;5042106;28;20132;-67
2022/07/12 05:08:55;;;;;;;15.85;8.00;;;;;;;24.43;54.07;100014.47;5049712;28;20045;-67
2022/07/12 05:11:22;;;;;;;13.55;8.10;;;;;;;24.13;54.38;99969.59;5046800;28;20110;-67
2022/07/12 05:13:49;;;;;;;15.63;7.50;;;;;;;24.28;54.57;99987.75;5033581;28;20083;-66
2022/07/12 05:16:16;;;;;;;13.55;8.50;;;;;;;24.39;54.55;100016.44;5036881;28;20092;-67
2022/07/12 05:18:42;;;;;;;13.98;7.90;;;;;;;24.43;54.37;100025.06;5032210;28;20534;-67
2022/07/12 05:21:10;;;;;;;18.00;8.40;;;;;;;24.43;54.41;100025.88;5032023;28;20123;-67
2022/07/12 05:23:37;;;;;;;14.10;7.70;;;;;;;24.40;54.72;100023.81;5033576;28;20049;-68
2022/07/12 05:26:04;;;;;;;12.70;7.25;;;;;;;24.36;54.43;100015.16;5043571;28;20123;-74
2022/07/12 05:28:32;;;;;;;18.42;7.47;;;;;;;24.43;54.69;100023.03;5038841;28;20145;-74
2022/07/12 05:30:59;;;;;;;12.60;6.88;;;;;;;24.33;54.26;100001.66;5034847;28;20137;-66
2022/07/12 05:33:26;;;;;;;14.35;8.13;;;;;;;24.31;54.22;99998.41;5043351;28;20407;-66
2022/07/12 05:35:53;;;;;;;14.63;6.05;;;;;;;24.47;54.50;100003.91;5042498;28;20058;-67
2022/07/12 05:38:19;;;;;;;10.93;5.90;;;;;;;24.69;53.98;100027.88;5039269;28;20460;-66
2022/07/12 05:40:46;;;;;;;11.35;7.47;;;;;;;24.75;53.87;100023.47;5040582;28;20140;-66
2022/07/12 05:43:15;;;;;;;11.32;6.57;;;;;;;24.78;53.40;99976.97;5040854;28;20140;-66
2022/07/12 05:45:42;;;;;;;11.02;6.18;;;;;;;25.42;52.29;100021.72;5039447;28;20049;-67
2022/07/12 05:48:09;;;;;;;10.38;5.25;;;;;;;25.53;51.33;100009.16;5041388;28;20057;-67
2022/07/12 05:50:36;;;;;;;11.50;6.03;;;;;;;25.81;50.48;100018.38;5035389;28;20107;-66
2022/07/12 05:53:21;;;;;;;9.95;5.70;;;;;;;25.90;50.50;99999.66;5030863;28;20148;-67
2022/07/12 05:55:50;;;;;;;8.27;5.22;;;;;;;26.23;49.28;100012.13;5034122;28;20096;-67
2022/07/12 05:58:18;;;;;;;6.93;4.43;;;;;;;26.62;47.84;100023.81;5037259;28;20095;-67
2022/07/12 06:00:46;;;;;;;6.67;4.47;;;;;;;26.99;46.64;100025.56;5035082;28;20072;-67
2022/07/12 06:03:14;;;;;;;6.35;4.38;;;;;;;27.07;45.88;99987.09;5031898;28;20476;-66
2022/07/12 06:05:41;;;;;;;6.93;4.57;;;;;;;27.40;45.68;100016.66;5036057;28;20049;-66
2022/07/12 06:08:08;;;;;;;7.05;4.95;;;;;;;27.49;45.69;100019.13;5038296;28;20148;-66
2022/07/12 06:10:35;;;;;;;9.07;5.05;;;;;;;27.68;45.98;100026.50;5037114;28;20478;-67
2022/07/12 06:13:02;;;;;;;6.45;4.45;;;;;;;27.85;45.32;100028.56;5038204;28;20140;-66
2022/07/12 06:15:29;;;;;;;6.18;4.50;;;;;;;28.00;44.88;100035.09;5034897;28;20430;-66
2022/07/12 06:18:00;;;;;;;10.38;6.15;;;;;;;28.12;45.62;100034.69;5043131;28;20428;-66
2022/07/12 06:20:27;;;;;;;7.00;4.10;;;;;;;28.15;44.37;100035.94;5029845;28;20087;-67
2022/07/12 06:22:54;;;;;;;6.63;4.55;;;;;;;28.23;43.56;100043.28;5044532;28;20141;-66
2022/07/12 06:25:23;;;;;;;7.30;4.22;;;;;;;28.16;43.44;100040.44;5038040;28;20072;-66
2022/07/12 06:28:10;;;;;;;7.60;4.45;;;;;;;28.17;42.96;100039.19;5033190;28;20069;-65
2022/07/12 06:30:37;;;;;;;8.95;5.25;;;;;;;28.00;42.98;100044.56;5037179;28;20049;-66
2022/07/12 06:33:04;;;;;;;6.22;4.00;;;;;;;27.93;42.62;100033.06;5030776;28;20049;-67
2022/07/12 06:35:33;;;;;;;6.55;4.68;;;;;;;27.92;42.45;100053.56;5041246;28;20565;-67
2022/07/12 06:38:01;;;;;;;6.35;4.00;;;;;;;27.70;42.94;100030.59;5031851;28;20135;-67
2022/07/12 06:40:28;;;;;;;7.60;5.15;;;;;;;27.67;42.75;100028.56;5041135;28;20076;-66
2022/07/12 06:42:55;;;;;;;6.53;4.43;;;;;;;27.74;43.04;100051.50;5036271;28;20077;-67
2022/07/12 06:45:23;;;;;;;5.75;4.88;;;;;;;27.48;43.56;100012.56;5030865;28;20049;-67
2022/07/12 06:47:51;;;;;;;5.03;4.15;;;;;;;27.62;43.52;100047.00;5032287;28;20133;-67
2022/07/12 06:50:17;;;;;;;12.82;4.05;;;;;;;27.53;43.58;100043.72;5028452;28;20055;-67
2022/07/12 06:52:44;;;;;;;9.18;4.65;;;;;;;27.58;42.14;100051.09;5028319;28;20132;-67
2022/07/12 06:55:11;;;;;;;4.75;3.78;;;;;;;27.60;41.31;100049.44;5033945;28;20049;-67
2022/07/12 06:57:38;;;;;;;6.47;4.30;;;;;;;27.59;41.04;100021.16;5030223;28;20103;-68
2022/07/12 07:00:06;;;;;;;9.55;3.63;;;;;;;27.87;39.48;100040.47;5032076;28;20465;-68
2022/07/12 07:02:33;;;;;;;6.30;3.67;;;;;;;28.24;38.54;100053.53;5030011;28;20108;-68
2022/07/12 07:05:00;;;;;;;5.13;3.75;;;;;;;28.60;37.76;100062.09;5035893;28;20088;-68
2022/07/12 07:07:27;;;;;;;6.00;4.15;;;;;;;28.98;36.68;100063.97;5032319;28;20606;-68
2022/07/12 07:09:54;;;;;;;7.93;4.40;;;;;;;29.43;35.31;100069.06;5039787;28;20124;-68
2022/07/12 07:12:21;;;;;;;5.97;3.72;;;;;;;29.76;35.15;100056.13;5040093;28;20482;-68
2022/07/12 07:14:48;;;;;;;6.63;3.15;;;;;;;30.02;34.68;100045.19;5045026;28;20084;-68
2022/07/12 07:17:19;;;;;;;6.68;3.70;;;;;;;30.40;34.52;100069.13;5032820;28;20142;-68
2022/07/12 07:19:46;;;;;;;4.93;3.47;;;;;;;30.36;33.49;100060.53;5049126;28;20083;-68
2022/07/12 07:22:13;;;;;;;8.52;3.22;;;;;;;30.42;33.44;100044.38;5053696;28;20476;-67
2022/07/12 07:24:41;;;;;;;8.07;3.22;;;;;;;30.71;32.59;100061.34;5038325;28;20168;-67
2022/07/12 07:27:08;;;;;;;8.32;4.25;;;;;;;31.04;34.42;100087.72;5044748;28;20046;-68
2022/07/12 07:32:20;;;;;;;7.55;3.92;;;;;;;30.97;37.11;100091.50;5034376;28;20076;-67
2022/07/12 07:34:47;;;;;;;9.77;4.60;;;;;;;30.88;36.60;100086.28;5041868;28;20099;-66
2022/07/12 07:37:14;;;;;;;12.82;4.07;;;;;;;31.06;36.20;100088.94;5044131;28;20072;-68
2022/07/12 07:39:41;;;;;;;6.65;4.38;;;;;;;31.18;37.01;100081.78;5044251;28;20144;-66
2022/07/12 07:42:08;;;;;;;5.95;4.05;;;;;;;31.20;36.58;100061.16;5035832;28;20054;-66
2022/07/12 07:44:35;;;;;;;4.88;4.40;;;;;;;31.34;36.09;100070.44;5037445;28;20100;-67
2022/07/12 07:47:22;;;;;;;7.75;4.72;;;;;;;31.58;35.82;100105.13;5038596;28;20064;-66
2022/07/12 07:49:54;;;;;;;9.35;3.88;;;;;;;31.65;35.41;100110.78;5034883;28;20049;-66
2022/07/12 07:52:21;;;;;;;5.95;4.25;;;;;;;31.61;34.87;100086.94;5040664;28;20132;-67
2022/07/12 07:54:47;;;;;;;7.53;4.18;;;;;;;31.90;34.87;100122.00;5037056;28;20133;-67
2022/07/12 07:57:14;;;;;;;6.53;4.15;;;;;;;32.03;33.57;100122.16;5046453;28;20472;-67
2022/07/12 07:59:41;;;;;;;7.53;3.50;;;;;;;32.17;33.24;100135.53;5039709;28;20041;-67
2022/07/12 08:02:12;;;;;;;7.20;4.38;;;;;;;32.38;32.68;100128.56;5035532;28;20459;-67
2022/07/12 08:04:39;;;;;;;6.15;3.65;;;;;;;32.51;31.56;100121.78;5034256;28;20056;-67
2022/07/12 08:07:06;;;;;;;7.68;4.35;;;;;;;32.62;31.23;100115.78;5037063;28;20076;-67
2022/07/12 08:09:32;;;;;;;5.50;3.42;;;;;;;32.97;30.57;100142.38;5039942;28;20083;-67
2022/07/12 08:11:59;;;;;;;9.13;3.97;;;;;;;33.16;30.71;100141.53;5044660;28;20128;-67
2022/07/12 08:14:26;;;;;;;7.35;3.28;;;;;;;33.22;30.73;100162.91;5042934;28;20128;-67
2022/07/12 08:16:53;;;;;;;4.65;3.28;;;;;;;33.24;30.04;100151.72;5039645;28;20239;-65
2022/07/12 08:19:20;;;;;;;6.75;3.65;;;;;;;33.56;29.54;100173.38;5043687;28;20408;-67
2022/07/12 08:21:47;;;;;;;4.60;3.33;;;;;;;33.82;28.86;100173.63;5037965;28;20041;-67
2022/07/12 08:24:14;;;;;;;10.00;3.78;;;;;;;33.99;28.73;100172.38;5037830;28;20171;-67
2022/07/12 08:26:41;;;;;;;8.23;3.35;;;;;;;33.90;28.73;100155.63;5040910;28;20144;-66
2022/07/12 08:29:07;;;;;;;6.38;4.13;;;;;;;33.88;28.18;100181.34;5046269;28;20468;-67
2022/07/12 08:31:34;;;;;;;8.27;2.53;;;;;;;33.83;28.07;100183.94;5034071;28;20095;-68
2022/07/12 08:34:02;;;;;;;7.30;3.55;;;;;;;33.79;27.76;100183.22;5043753;28;20136;-67
2022/07/12 08:36:29;;;;;;;10.18;3.75;;;;;;;33.92;27.67;100187.03;5035246;28;20568;-67
2022/07/12 08:38:59;;;;;;;9.98;3.28;;;;;;;33.97;27.70;100180.69;5036194;28;20072;-68
2022/07/12 08:41:26;;;;;;;3.85;2.63;;;;;;;33.95;27.80;100189.84;5044228;28;20128;-66
2022/07/12 08:43:52;;;;;;;8.38;3.65;;;;;;;34.01;26.94;100195.13;5043560;28;20101;-67
2022/07/12 08:46:19;;;;;;;9.63;3.25;;;;;;;34.28;27.34;100203.56;5039916;28;20110;-67
2022/07/12 08:48:46;;;;;;;5.00;3.17;;;;;;;34.34;26.82;100193.88;5033230;28;20483;-66
2022/07/12 08:51:19;;;;;;;8.00;3.47;;;;;;;34.52;27.60;100210.03;5037886;28;20081;-67
2022/07/12 08:53:49;;;;;;;3.33;3.03;;;;;;;34.46;27.47;100201.03;5031480;28;20277;-67
2022/07/12 08:56:57;;;;;;;5.60;4.18;;;;;;;34.52;27.81;100222.44;5034226;28;20052;-67
2022/07/12 08:59:24;;;;;;;5.40;3.15;;;;;;;34.62;27.23;100212.66;4997109;28;20856;-67
2022/07/12 09:01:53;;;;;;;7.85;3.38;;;;;;;34.83;26.22;100225.75;5028262;28;20159;-67
2022/07/12 09:04:23;;;;;;;6.72;3.30;;;;;;;34.94;26.52;100216.75;5036451;28;20551;-67
2022/07/12 09:06:51;;;;;;;10.32;3.70;;;;;;;35.03;26.32;100228.56;5042031;28;20053;-68
2022/07/12 09:09:30;;;;;;;2.60;2.00;;;;;;;34.96;25.64;100227.91;5032754;28;20056;-68
2022/07/12 09:11:57;;;;;;;11.77;3.08;;;;;;;35.00;25.15;100223.63;5031414;28;20136;-67
2022/07/12 09:14:26;;;;;;;3.60;3.10;;;;;;;35.17;25.43;100241.03;5034369;28;20136;-68
2022/07/12 09:17:01;;;;;;;5.00;3.22;;;;;;;35.09;25.19;100212.22;5033124;28;20111;-67
2022/07/12 09:19:29;;;;;;;8.52;2.97;;;;;;;35.25;25.12;100231.69;5044097;28;20133;-67
2022/07/12 09:21:55;;;;;;;4.13;3.20;;;;;;;35.46;24.76;100233.16;5066172;28;20071;-67
2022/07/12 09:24:27;;;;;;;6.45;3.35;;;;;;;35.31;24.72;100203.69;5040683;28;20140;-67
2022/07/12 09:26:59;;;;;;;6.85;3.50;;;;;;;35.56;24.75;100232.03;5035040;28;20095;-67
2022/07/12 09:29:26;;;;;;;4.32;3.67;;;;;;;35.58;24.66;100246.09;5039347;28;20499;-67
2022/07/12 09:37:26;;;;;;;9.82;4.32;;;;;;;35.85;23.07;100236.97;5039629;28;20079;-67
2022/07/12 09:39:56;;;;;;;;;;;;;;;35.73;24.22;100244.41;5044157;28;20198;-67
2022/07/12 09:42:24;;;;;;;4.93;3.10;;;;;;;35.81;23.96;100221.75;5039601;28;19963;-67
2022/07/12 09:44:57;;;;;;;4.78;3.30;;;;;;;36.02;23.77;100209.47;5036978;28;20091;-67
2022/07/12 09:47:25;;;;;;;6.65;3.20;;;;;;;36.29;23.74;100220.63;5036484;28;20143;-67
2022/07/12 09:49:52;;;;;;;6.93;3.33;;;;;;;36.29;24.23;100222.72;5032114;28;20049;-67
2022/07/12 09:52:21;;;;;;;4.78;3.38;;;;;;;36.03;23.39;100225.63;5036426;28;20507;-68
2022/07/12 09:54:53;;;;;;;4.22;3.13;;;;;;;36.20;23.76;100225.50;5039792;28;20469;-67
2022/07/12 09:57:32;;;;;;;5.70;3.22;;;;;;;36.14;23.23;100236.91;5033819;28;20053;-67
2022/07/12 10:00:00;;;;;;;4.32;3.60;;;;;;;35.92;22.80;100228.03;5039599;28;20084;-67
2022/07/12 10:02:27;;;;;;;4.22;3.22;;;;;;;35.86;23.35;100238.59;5037194;28;20049;-68
2022/07/12 10:04:56;;;;;;;5.57;3.50;;;;;;;35.91;23.03;100240.13;5041198;28;20059;-67
2022/07/12 10:07:23;;;;;;;4.05;3.05;;;;;;;35.90;23.14;100218.97;5035231;28;20080;-68
2022/07/12 10:09:52;;;;;;;4.45;3.17;;;;;;;36.25;22.43;100242.38;5037876;28;20053;-68
2022/07/12 10:12:22;;;;;;;5.43;3.15;;;;;;;36.50;22.34;100232.84;5037032;28;20056;-67
2022/07/12 10:14:55;;;;;;;6.82;3.58;;;;;;;36.56;22.18;100235.97;5036788;28;20119;-66
2022/07/12 10:17:22;;;;;;;4.35;2.95;;;;;;;36.43;21.84;100219.31;5037737;28;20079;-68
2022/07/12 10:20:09;;;;;;;5.10;3.10;;;;;;;36.40;22.23;100231.88;5043609;28;20543;-69
2022/07/12 10:22:36;;;;;;;5.00;3.20;;;;;;;36.45;22.50;100257.50;5042582;28;20610;-68
2022/07/12 10:25:05;;;;;;;7.03;3.78;;;;;;;36.36;22.71;100237.00;5034621;28;20053;-68
2022/07/12 10:27:33;;;;;;;6.05;3.20;;;;;;;36.70;21.74;100255.84;5032348;28;20167;-69
2022/07/12 10:30:26;;;;;;;5.20;3.30;;;;;;;36.78;22.79;100242.66;5036260;28;20053;-68
2022/07/12 10:32:57;;;;;;;10.20;3.47;;;;;;;36.82;22.34;100257.91;5034004;28;20063;-68
2022/07/12 10:35:26;;;;;;;5.03;3.10;;;;;;;36.74;22.63;100251.53;5036422;28;20076;-68
2022/07/12 10:38:12;;;;;;;6.72;3.70;;;;;;;36.72;23.18;100259.09;5032649;28;20061;-68
2022/07/12 10:40:40;;;;;;;5.38;3.50;;;;;;;36.83;23.37;100252.91;5034595;28;20139;-68
2022/07/12 10:43:07;;;;;;;5.15;4.13;;;;;;;36.84;23.15;100269.09;5037650;28;20049;-68
2022/07/12 10:45:39;;;;;;;8.10;3.70;;;;;;;36.83;23.84;100256.63;5039066;28;20045;-68
2022/07/12 10:48:07;;;;;;;5.00;3.90;;;;;;;36.93;24.18;100264.19;5036071;28;20133;-66
2022/07/12 10:50:44;;;;;;;6.20;4.00;;;;;;;37.20;23.13;100254.13;5042251;28;20107;-68
2022/07/12 10:53:30;;;;;;;8.35;3.72;;;;;;;37.32;23.31;100259.06;5041233;28;20146;-68
2022/07/12 10:56:14;;;;;;;13.80;4.50;;;;;;;37.26;22.95;100263.84;5040640;28;20049;-68
2022/07/12 10:58:53;;;;;;;3.90;3.53;;;;;;;37.22;23.17;100266.09;5035848;28;20111;-68
2022/07/12 11:01:24;;;;;;;5.43;4.03;;;;;;;37.20;22.76;100260.75;5038130;28;22868;-68
2022/07/12 11:03:53;;;;;;;6.70;3.38;;;;;;;37.13;22.90;100263.91;5035700;28;20059;-66
2022/07/12 11:06:23;;;;;;;4.68;3.42;;;;;;;36.97;22.54;100226.25;5040322;28;20083;-68
2022/07/12 11:09:01;;;;;;;5.65;4.13;;;;;;;37.64;22.32;100277.44;5042848;28;20502;-68
2022/07/12 11:11:30;;;;;;;5.68;3.60;;;;;;;37.93;22.44;100266.34;5039737;28;20132;-68
2022/07/12 11:13:58;;;;;;;7.35;4.13;;;;;;;38.01;22.87;100260.22;5039708;28;20107;-68
2022/07/12 11:16:26;;;;;;;8.45;3.50;;;;;;;37.95;22.18;100248.34;5036580;28;20148;-69
2022/07/12 11:18:55;;;;;;;4.38;3.55;;;;;;;38.24;21.74;100264.72;5039155;28;20053;-68
2022/07/12 11:21:22;;;;;;;;;;;;;;;38.21;21.64;100262.75;5045125;28;20118;-68
2022/07/12 11:23:50;;;;;;;6.80;3.80;;;;;;;38.29;21.76;100240.72;5039072;28;20043;-68
2022/07/12 11:26:17;;;;;;;5.53;3.90;;;;;;;38.39;20.86;100251.19;5031209;28;20052;-68
2022/07/12 11:28:47;;;;;;;5.85;3.58;;;;;;;38.40;21.71;100247.00;5041722;28;20053;-68
2022/07/12 11:31:17;;;;;;;4.25;3.22;;;;;;;38.46;21.47;100250.06;5037766;28;20045;-68
2022/07/12 11:33:46;;;;;;;4.43;2.95;;;;;;;38.57;20.98;100257.09;5040380;28;20092;-68
2022/07/12 11:36:14;;;;;;;6.70;3.70;;;;;;;38.91;20.32;100257.31;5043227;28;20152;-69
2022/07/12 11:38:43;;;;;;;7.60;3.70;;;;;;;39.02;20.77;100260.59;5038373;28;20049;-68
2022/07/12 11:41:12;;;;;;;10.38;4.28;;;;;;;39.00;21.80;100243.56;5034573;28;20136;-69